This is the latest recevied weather packets stored in our database for station/object W2GRK-15. If no packets are shown the sender has not sent any weather packets the latest 10 day(s).
| Time | Temp. | Humidity | Pressure | Rain* | Wind** | Luminosity | Snow |
|---|---|---|---|---|---|---|---|
| 1777685787 | 12.22° C | 63% | 1012.3 hPa | 0 mm | - | 0 W/m² | - |
| 1777685658 | 12.22° C | 63% | 1012.2 hPa | 0 mm | - | 0 W/m² | - |
| 1777685127 | 12.22° C | 62% | 1012.3 hPa | 0 mm | - | 0 W/m² | - |
| 1777684820 | 12.22° C | 62% | 1012.3 hPa | 0 mm | - | 0 W/m² | - |
| 1777684643 | 12.22° C | 62% | 1012 hPa | 0 mm | - | 0 W/m² | - |
| 1777684466 | 12.78° C | 62% | 1012.1 hPa | 0 mm | - | 0 W/m² | - |
| 1777683565 | 13.33° C | 58% | 1011.9 hPa | 0 mm | - | 0 W/m² | - |
| 1777683343 | 13.33° C | 59% | 1012 hPa | 0 mm | - | 0 W/m² | - |
| 1777682905 | 13.33° C | 58% | 1011.8 hPa | 0 mm | - | 0 W/m² | - |
| 1777681910 | 14.44° C | 55% | 1011.7 hPa | 0 mm | - | 0 W/m² | - |
| 1777681407 | 14.44° C | 54% | 1011.6 hPa | 0 mm | - | 0 W/m² | - |
| 1777681166 | 14.44° C | 53% | 1011.7 hPa | 0 mm | - | 0 W/m² | - |
| 1777681101 | 14.44° C | 53% | 1011.7 hPa | 0 mm | - | 0 W/m² | - |
| 1777680815 | 15° C | 51% | 1011.7 hPa | 0 mm | - | 0 W/m² | - |
| 1777680683 | 15° C | 51% | 1011.5 hPa | 0 mm | - | 0 W/m² | - |
| 1777680022 | 15.56° C | 48% | 1011.4 hPa | 0 mm | - | 1 W/m² | - |
| 1777679490 | 16.11° C | 48% | 1011.4 hPa | 0 mm | - | 3 W/m² | - |
| 1777679426 | 16.11° C | 47% | 1011.3 hPa | 0 mm | - | 3 W/m² | - |
| 1777678878 | 16.11° C | 46% | 1011.3 hPa | 0 mm | - | 6 W/m² | - |
| 1777678588 | 16.67° C | 43% | 1011.2 hPa | 0 mm | - | 7 W/m² | - |
| 1777678041 | 16.67° C | 43% | 1011 hPa | 0 mm | - | 7 W/m² | - |
| 1777677687 | 16.67° C | 42% | 1011.1 hPa | 0 mm | - | 11 W/m² | - |
| 1777677558 | 16.67° C | 42% | 1011 hPa | 0 mm | - | 15 W/m² | - |
| 1777677530 | 16.67° C | 42% | 1011 hPa | 0 mm | - | 16 W/m² | - |
| 1777677268 | 16.67° C | 43% | 1011.2 hPa | 0 mm | - | 18 W/m² | - |
* Rain latest hour (hover to see other rain measurements)
** Current wind speed in m/s (hover to see current wind gust speed)